createdAt,value
2019-03-03T00:00:21.863Z,7.22
2019-03-03T00:01:29.173Z,5.03
2019-03-03T00:02:34.058Z,5.50
2019-03-03T00:03:39.415Z,4.58
2019-03-03T00:04:44.437Z,4.40
2019-03-03T00:05:49.267Z,4.25
2019-03-03T00:06:54.727Z,3.83
2019-03-03T00:07:59.566Z,4.37
2019-03-03T00:09:05.872Z,4.03
2019-03-03T00:10:11.098Z,4.53
2019-03-03T00:11:16.254Z,4.50
2019-03-03T00:12:22.250Z,3.92
2019-03-03T00:13:27.422Z,4.08
2019-03-03T00:14:32.269Z,4.62
2019-03-03T00:15:40.256Z,4.58
2019-03-03T00:16:45.292Z,4.10
2019-03-03T00:17:50.478Z,3.83
2019-03-03T00:18:55.619Z,3.20
2019-03-03T00:20:04.206Z,3.30
2019-03-03T00:21:09.608Z,4.45
2019-03-03T00:22:15.848Z,3.67
2019-03-03T00:23:23.087Z,4.03
2019-03-03T00:24:33.280Z,3.45
2019-03-03T00:25:39.858Z,3.25
2019-03-03T00:26:48.362Z,4.87
2019-03-03T00:27:53.314Z,4.00
2019-03-03T00:28:58.225Z,3.40
2019-03-03T00:30:06.383Z,4.35
2019-03-03T00:31:11.554Z,3.15
2019-03-03T00:32:19.119Z,3.52
2019-03-03T00:33:24.396Z,3.55
2019-03-03T00:34:49.516Z,2.83
2019-03-03T00:35:54.462Z,3.83
2019-03-03T00:37:18.284Z,3.20
2019-03-03T00:38:40.707Z,3.20
2019-03-03T00:40:04.605Z,5.00
2019-03-03T00:41:48.350Z,4.00
2019-03-03T00:43:10.912Z,4.12
2019-03-03T00:44:29.049Z,2.83
2019-03-03T00:45:51.430Z,3.12
2019-03-03T00:47:18.587Z,3.08
2019-03-03T00:48:38.845Z,4.22
2019-03-03T00:50:18.208Z,4.10
2019-03-03T00:51:41.929Z,4.15
2019-03-03T00:53:24.955Z,3.37
2019-03-03T00:55:01.559Z,4.40
2019-03-03T00:56:32.766Z,4.10
2019-03-03T00:57:54.786Z,4.12
2019-03-03T00:59:23.185Z,4.03
2019-03-03T01:00:47.751Z,3.52
2019-03-03T01:02:05.719Z,3.70
2019-03-03T01:03:17.301Z,4.20
2019-03-03T01:04:39.419Z,4.60
2019-03-03T01:06:12.206Z,2.65
2019-03-03T01:07:35.158Z,3.00
2019-03-03T01:09:04.173Z,3.58
2019-03-03T01:10:28.989Z,4.47
2019-03-03T01:11:58.998Z,4.58
2019-03-03T01:13:29.285Z,5.97
2019-03-03T01:14:56.850Z,8.25
2019-03-03T01:16:16.397Z,5.65
2019-03-03T01:17:40.056Z,4.80
2019-03-03T01:19:10.009Z,5.15
2019-03-03T01:20:29.527Z,4.85
2019-03-03T01:21:39.843Z,4.70
2019-03-03T01:23:12.565Z,3.80
2019-03-03T01:24:47.888Z,4.30
2019-03-03T01:25:57.964Z,3.90
2019-03-03T01:27:20.918Z,4.20
2019-03-03T01:28:58.477Z,3.72
2019-03-03T01:30:03.658Z,4.95
2019-03-03T01:31:09.189Z,4.60
2019-03-03T01:32:14.427Z,4.22
2019-03-03T01:33:19.751Z,3.35
2019-03-03T01:34:24.549Z,3.12
2019-03-03T01:35:29.406Z,4.20
2019-03-03T01:36:34.404Z,3.45
2019-03-03T01:37:39.502Z,3.90
2019-03-03T01:38:45.267Z,3.45
2019-03-03T01:39:50.107Z,3.67
2019-03-03T01:40:54.940Z,5.00
2019-03-03T01:42:00.509Z,4.45
2019-03-03T01:43:05.700Z,3.20
2019-03-03T01:44:10.525Z,3.70
2019-03-03T01:45:15.440Z,3.40
2019-03-03T01:46:20.809Z,3.80
2019-03-03T01:47:26.236Z,3.22
2019-03-03T01:48:34.003Z,3.60
2019-03-03T01:49:40.195Z,4.25
2019-03-03T01:50:45.410Z,3.35
2019-03-03T01:51:50.553Z,3.65
2019-03-03T01:52:55.414Z,3.87
2019-03-03T01:54:03.947Z,3.40
2019-03-03T01:55:09.641Z,3.90
2019-03-03T01:56:14.462Z,3.65
2019-03-03T01:57:19.545Z,3.60
2019-03-03T01:58:24.823Z,3.40
2019-03-03T01:59:29.678Z,3.25
2019-03-03T02:00:35.029Z,3.05
2019-03-03T02:01:39.847Z,4.22
2019-03-03T02:02:44.660Z,3.60
2019-03-03T02:03:49.530Z,3.47
2019-03-03T02:04:54.795Z,4.20
2019-03-03T02:05:59.605Z,3.72
2019-03-03T02:07:04.629Z,3.72
2019-03-03T02:08:10.094Z,3.12
2019-03-03T02:09:15.210Z,3.20
2019-03-03T02:10:23.240Z,4.05
2019-03-03T02:11:28.238Z,3.98
2019-03-03T02:12:33.518Z,3.58
2019-03-03T02:13:38.481Z,4.17
2019-03-03T02:14:43.349Z,2.95
2019-03-03T02:15:48.105Z,3.17
2019-03-03T02:16:53.411Z,5.33
2019-03-03T02:17:58.303Z,3.10
2019-03-03T02:19:03.244Z,4.28
2019-03-03T02:20:08.631Z,3.70
2019-03-03T02:21:13.606Z,4.30
2019-03-03T02:22:18.611Z,3.10
2019-03-03T02:23:23.997Z,3.87
2019-03-03T02:24:28.861Z,3.77
2019-03-03T02:25:33.654Z,3.17
2019-03-03T02:26:38.721Z,3.40
2019-03-03T02:27:43.545Z,3.75
2019-03-03T02:28:48.362Z,3.05
2019-03-03T02:29:53.465Z,3.10
2019-03-03T02:30:58.467Z,3.98
2019-03-03T02:32:04.556Z,3.20
2019-03-03T02:33:09.365Z,5.12
2019-03-03T02:34:14.793Z,3.50
2019-03-03T02:35:19.579Z,3.70
2019-03-03T02:36:24.712Z,3.37
2019-03-03T02:37:29.478Z,3.12
2019-03-03T02:38:34.337Z,3.17
2019-03-03T02:39:39.176Z,3.37
2019-03-03T02:40:43.959Z,3.20
2019-03-03T02:41:48.875Z,3.52
2019-03-03T02:42:53.696Z,3.10
2019-03-03T02:43:58.534Z,3.80
2019-03-03T02:45:03.424Z,2.90
2019-03-03T02:46:08.321Z,4.25
2019-03-03T02:47:13.167Z,3.85
2019-03-03T02:48:18.249Z,3.00
2019-03-03T02:49:23.063Z,3.95
2019-03-03T02:50:27.939Z,3.15
2019-03-03T02:51:32.769Z,3.37
2019-03-03T02:52:37.661Z,3.55
2019-03-03T02:53:42.450Z,3.72
2019-03-03T02:54:47.268Z,3.80
2019-03-03T02:55:56.788Z,4.28
2019-03-03T02:57:01.641Z,3.87
2019-03-03T02:58:06.493Z,3.15
2019-03-03T02:59:11.293Z,3.72
2019-03-03T03:00:20.711Z,3.92
2019-03-03T03:01:29.421Z,3.20
2019-03-03T03:02:45.951Z,4.10
2019-03-03T03:03:50.752Z,2.85
2019-03-03T03:04:55.624Z,2.90
2019-03-03T03:06:12.559Z,2.95
2019-03-03T03:07:37.241Z,3.27
2019-03-03T03:08:59.680Z,3.90
2019-03-03T03:10:10.877Z,2.92
2019-03-03T03:11:29.424Z,3.02
2019-03-03T03:12:56.351Z,4.30
2019-03-03T03:14:26.448Z,3.22
2019-03-03T03:15:54.042Z,4.05
2019-03-03T03:17:18.111Z,2.85
2019-03-03T03:18:41.812Z,3.80
2019-03-03T03:20:10.547Z,2.83
2019-03-03T03:21:37.277Z,3.58
2019-03-03T03:22:54.395Z,3.40
2019-03-03T03:24:06.450Z,3.55
2019-03-03T03:25:35.853Z,3.17
2019-03-03T03:27:01.553Z,3.55
2019-03-03T03:28:43.296Z,3.52
2019-03-03T03:30:22.428Z,3.90
2019-03-03T03:31:52.437Z,3.62
2019-03-03T03:33:18.652Z,2.67
2019-03-03T03:34:31.244Z,3.02
2019-03-03T03:36:04.222Z,3.80
2019-03-03T03:37:25.593Z,3.30
2019-03-03T03:38:48.082Z,1.98
2019-03-03T03:40:11.738Z,3.83
2019-03-03T03:41:31.358Z,3.77
2019-03-03T03:42:46.318Z,3.50
2019-03-03T03:44:10.043Z,3.80
2019-03-03T03:45:39.605Z,3.80
2019-03-03T03:47:03.345Z,2.95
2019-03-03T03:48:39.765Z,3.80
2019-03-03T03:49:59.299Z,2.72
2019-03-03T03:51:25.760Z,3.42
2019-03-03T03:53:01.120Z,3.15
2019-03-03T03:54:42.499Z,2.90
2019-03-03T03:56:19.251Z,3.85
2019-03-03T03:57:42.951Z,5.35
2019-03-03T03:59:05.181Z,3.12
2019-03-03T04:00:23.753Z,3.17
2019-03-03T04:01:38.808Z,4.95
2019-03-03T04:03:07.440Z,4.10
2019-03-03T04:04:31.478Z,4.72
2019-03-03T04:05:52.714Z,5.53
2019-03-03T04:07:09.464Z,4.72
2019-03-03T04:08:28.826Z,5.20
2019-03-03T04:09:51.352Z,4.87
2019-03-03T04:11:14.917Z,4.95
2019-03-03T04:12:38.002Z,4.95
2019-03-03T04:13:53.866Z,3.90
2019-03-03T04:15:07.788Z,3.80
2019-03-03T04:16:31.456Z,3.95
2019-03-03T04:18:00.126Z,6.50
2019-03-03T04:19:21.817Z,5.95
2019-03-03T04:22:52.783Z,5.58
2019-03-03T04:24:08.471Z,7.35
2019-03-03T04:25:21.392Z,6.90
2019-03-03T04:26:45.143Z,7.60
2019-03-03T04:28:09.005Z,7.83
2019-03-03T04:29:44.866Z,6.72
2019-03-03T04:31:07.499Z,5.92
2019-03-03T04:32:20.349Z,5.90
2019-03-03T04:33:53.000Z,5.40
2019-03-03T04:35:06.110Z,4.67
2019-03-03T04:36:38.954Z,4.83
2019-03-03T04:38:05.160Z,5.70
2019-03-03T04:39:18.337Z,5.92
2019-03-03T04:40:45.145Z,4.75
2019-03-03T04:42:07.402Z,3.98
2019-03-03T04:43:27.233Z,4.70
2019-03-03T04:44:45.017Z,5.30
2019-03-03T04:46:12.508Z,4.58
2019-03-03T04:47:25.407Z,3.90
2019-03-03T04:48:49.093Z,5.37
2019-03-03T04:50:11.050Z,4.15
2019-03-03T04:51:40.629Z,4.75
2019-03-03T04:53:19.631Z,4.25
2019-03-03T04:54:49.026Z,6.03
2019-03-03T04:56:01.019Z,5.95
2019-03-03T04:57:32.725Z,6.85
2019-03-03T04:58:48.191Z,7.17
2019-03-03T05:00:13.047Z,6.75
2019-03-03T05:01:48.593Z,5.37
2019-03-03T05:03:11.160Z,5.17
2019-03-03T05:04:41.475Z,4.95
2019-03-03T05:06:08.179Z,4.25
2019-03-03T05:07:31.856Z,3.90
2019-03-03T05:08:53.947Z,3.98
2019-03-03T05:10:21.190Z,3.60
2019-03-03T05:12:49.152Z,3.62
2019-03-03T05:14:06.773Z,3.60
2019-03-03T05:15:34.429Z,3.40
2019-03-03T05:16:54.734Z,3.35
2019-03-03T05:18:14.073Z,3.85
2019-03-03T05:19:27.962Z,5.30
2019-03-03T05:20:45.972Z,3.50
2019-03-03T05:21:50.910Z,4.55
2019-03-03T05:22:56.019Z,4.03
2019-03-03T05:24:00.857Z,3.92
2019-03-03T05:25:05.846Z,3.35
2019-03-03T05:26:15.944Z,3.55
2019-03-03T05:27:20.699Z,4.45
2019-03-03T05:28:25.939Z,3.40
2019-03-03T05:29:30.994Z,3.65
2019-03-03T05:30:38.947Z,3.40
2019-03-03T05:31:43.768Z,3.20
2019-03-03T05:32:48.537Z,3.50
2019-03-03T05:33:53.362Z,3.87
2019-03-03T05:34:58.252Z,5.12
2019-03-03T05:36:03.047Z,4.10
2019-03-03T05:37:10.185Z,4.92
2019-03-03T05:38:14.965Z,2.90
2019-03-03T05:39:19.790Z,3.75
2019-03-03T05:40:25.199Z,3.50
2019-03-03T05:41:30.062Z,3.40
2019-03-03T05:42:35.277Z,3.27
2019-03-03T05:43:40.829Z,3.20
2019-03-03T05:44:45.842Z,4.08
2019-03-03T05:45:51.200Z,3.72
2019-03-03T05:46:56.000Z,5.00
2019-03-03T05:48:02.395Z,3.22
2019-03-03T05:49:07.140Z,3.67
2019-03-03T05:50:11.932Z,3.40
2019-03-03T05:51:19.345Z,2.98
2019-03-03T05:52:26.882Z,3.65
2019-03-03T05:53:33.320Z,3.42
2019-03-03T05:54:38.194Z,2.72
2019-03-03T05:55:46.624Z,3.80
2019-03-03T05:56:57.137Z,3.37
2019-03-03T05:58:02.287Z,3.40
2019-03-03T05:59:07.242Z,3.90
2019-03-03T06:00:13.288Z,4.22
2019-03-03T06:01:18.375Z,2.80
2019-03-03T06:02:23.180Z,4.00
2019-03-03T06:03:28.549Z,4.37
2019-03-03T06:04:33.687Z,3.58
2019-03-03T06:05:38.721Z,3.45
2019-03-03T06:06:44.952Z,4.37
2019-03-03T06:07:56.337Z,4.28
2019-03-03T06:09:17.762Z,4.90
2019-03-03T06:10:49.725Z,7.70
2019-03-03T06:11:55.690Z,5.25
2019-03-03T06:13:00.918Z,5.40
2019-03-03T06:14:05.700Z,4.72
2019-03-03T06:15:12.822Z,5.12
2019-03-03T06:16:17.635Z,6.60
2019-03-03T06:17:24.119Z,4.72
2019-03-03T06:18:30.700Z,6.12
2019-03-03T06:19:35.850Z,4.10
2019-03-03T06:20:43.188Z,5.00
2019-03-03T06:21:48.752Z,4.95
2019-03-03T06:22:55.306Z,6.35
2019-03-03T06:25:26.135Z,4.50
2019-03-03T06:26:30.998Z,3.92
2019-03-03T06:27:38.320Z,4.60
2019-03-03T06:28:43.145Z,5.65
2019-03-03T06:29:48.986Z,4.45
2019-03-03T06:30:54.739Z,3.60
2019-03-03T06:31:59.481Z,6.10
2019-03-03T06:33:04.304Z,4.00
2019-03-03T06:34:10.073Z,6.20
2019-03-03T06:35:15.351Z,5.75
2019-03-03T06:36:20.692Z,5.22
2019-03-03T06:37:25.933Z,7.83
2019-03-03T06:38:31.377Z,4.15
2019-03-03T06:39:44.084Z,4.67
2019-03-03T06:40:48.510Z,4.95
2019-03-03T06:41:53.337Z,4.65
2019-03-03T06:43:00.850Z,4.65
2019-03-03T06:44:05.630Z,4.28
2019-03-03T06:45:11.310Z,5.65
2019-03-03T06:46:16.042Z,4.70
2019-03-03T06:47:20.915Z,5.30
2019-03-03T06:48:25.785Z,6.37
2019-03-03T06:49:39.543Z,4.03
2019-03-03T06:51:02.701Z,3.95
2019-03-03T06:52:07.754Z,4.75
2019-03-03T06:53:14.257Z,6.37
2019-03-03T06:54:19.657Z,3.95
2019-03-03T06:55:28.292Z,4.90
2019-03-03T06:56:34.595Z,3.92
2019-03-03T06:57:39.440Z,4.83
2019-03-03T06:58:44.216Z,5.20
2019-03-03T06:59:51.603Z,4.75
2019-03-03T07:00:57.499Z,4.20
2019-03-03T07:02:02.391Z,4.55
2019-03-03T07:03:07.888Z,3.30
2019-03-03T07:04:14.470Z,5.75
2019-03-03T07:05:20.238Z,3.85
2019-03-03T07:06:28.188Z,4.85
2019-03-03T07:07:42.597Z,4.20
2019-03-03T07:08:48.189Z,4.50
2019-03-03T07:10:01.573Z,4.15
2019-03-03T07:11:19.480Z,3.83
2019-03-03T07:12:30.486Z,4.08
2019-03-03T07:13:57.622Z,4.60
2019-03-03T07:15:38.026Z,4.60
2019-03-03T07:16:57.155Z,4.00
2019-03-03T07:18:11.391Z,4.65
2019-03-03T07:19:20.102Z,4.50
2019-03-03T07:20:28.783Z,4.30
2019-03-03T07:21:39.706Z,5.35
2019-03-03T07:22:45.209Z,4.55
2019-03-03T07:23:50.075Z,4.28
2019-03-03T07:24:56.347Z,3.87
2019-03-03T07:26:03.718Z,4.30
2019-03-03T07:27:10.955Z,4.42
2019-03-03T07:28:17.276Z,4.80
2019-03-03T07:29:23.837Z,4.28
2019-03-03T07:30:33.800Z,4.78
2019-03-03T07:31:40.152Z,6.50
2019-03-03T07:33:08.905Z,3.62
2019-03-03T07:34:13.717Z,3.98
2019-03-03T07:35:19.005Z,4.78
2019-03-03T07:36:26.214Z,4.58
2019-03-03T07:37:45.695Z,4.58
2019-03-03T07:38:54.182Z,4.05
2019-03-03T07:39:59.105Z,4.33
2019-03-03T07:41:03.938Z,6.40
2019-03-03T07:42:09.215Z,4.25
2019-03-03T07:43:14.486Z,4.25
2019-03-03T07:44:19.244Z,4.40
2019-03-03T07:45:27.406Z,4.75
2019-03-03T07:46:32.665Z,3.92
2019-03-03T07:47:37.589Z,3.52
2019-03-03T07:48:45.895Z,4.87
2019-03-03T07:49:50.914Z,4.30
2019-03-03T07:50:55.812Z,4.87
2019-03-03T07:52:02.499Z,4.70
2019-03-03T07:53:07.482Z,4.60
2019-03-03T07:54:12.523Z,4.25
2019-03-03T07:55:18.710Z,5.65
2019-03-03T07:56:23.858Z,5.37
2019-03-03T07:57:28.688Z,5.40
2019-03-03T07:58:34.093Z,5.12
2019-03-03T07:59:40.855Z,4.60
2019-03-03T08:00:50.048Z,4.75
2019-03-03T08:01:56.640Z,6.17
2019-03-03T08:03:01.564Z,5.25
2019-03-03T08:04:06.474Z,5.65
2019-03-03T08:05:11.483Z,6.40
2019-03-03T08:06:20.075Z,3.70
2019-03-03T08:07:29.053Z,4.50
2019-03-03T08:08:36.656Z,5.22
2019-03-03T08:09:42.161Z,5.55
2019-03-03T08:10:47.430Z,4.45
2019-03-03T08:11:53.041Z,7.58
2019-03-03T08:12:58.056Z,5.47
2019-03-03T08:14:04.441Z,4.15
2019-03-03T08:15:12.538Z,6.20
2019-03-03T08:16:20.282Z,4.70
2019-03-03T08:17:25.408Z,4.65
2019-03-03T08:18:30.472Z,4.17
2019-03-03T08:19:39.303Z,3.85
2019-03-03T08:20:45.598Z,3.47
2019-03-03T08:22:00.250Z,4.87
2019-03-03T08:23:06.807Z,5.42
2019-03-03T08:24:12.400Z,3.75
2019-03-03T08:25:17.822Z,4.55
2019-03-03T08:26:22.767Z,3.62
2019-03-03T08:27:29.219Z,3.98
2019-03-03T08:28:37.541Z,3.25
2019-03-03T08:29:44.430Z,3.95
2019-03-03T08:30:50.003Z,4.00
2019-03-03T08:31:56.611Z,2.98
2019-03-03T08:33:03.981Z,5.15
2019-03-03T08:34:21.247Z,3.02
2019-03-03T08:35:31.678Z,4.53
2019-03-03T08:36:37.592Z,4.35
2019-03-03T08:37:42.508Z,3.90
2019-03-03T08:38:47.457Z,3.05
2019-03-03T08:39:53.075Z,4.72
2019-03-03T08:41:17.268Z,4.80
2019-03-03T08:42:46.146Z,3.10
2019-03-03T08:44:06.395Z,2.70
2019-03-03T08:45:38.647Z,3.75
2019-03-03T08:47:13.194Z,3.75
2019-03-03T08:48:32.954Z,3.15
2019-03-03T08:49:52.741Z,3.17
2019-03-03T08:51:06.210Z,2.67
2019-03-03T08:52:39.854Z,2.75
2019-03-03T08:54:07.033Z,2.42
2019-03-03T08:55:23.812Z,3.02
2019-03-03T08:56:50.226Z,2.40
2019-03-03T08:58:13.254Z,2.15
2019-03-03T08:59:48.875Z,2.25
2019-03-03T09:01:20.553Z,2.60
2019-03-03T09:02:41.208Z,1.50
2019-03-03T09:03:57.058Z,2.40
2019-03-03T09:05:43.420Z,2.15
2019-03-03T09:06:57.215Z,1.80
2019-03-03T09:08:33.824Z,2.35
2019-03-03T09:09:54.545Z,2.20
2019-03-03T09:11:18.303Z,2.08
2019-03-03T09:12:42.378Z,1.95
2019-03-03T09:13:56.934Z,2.55
2019-03-03T09:15:24.550Z,1.92
2019-03-03T09:16:59.617Z,2.00
2019-03-03T09:18:36.469Z,3.00
2019-03-03T09:19:52.310Z,2.10
2019-03-03T09:21:15.137Z,2.40
2019-03-03T09:22:31.990Z,2.80
2019-03-03T09:23:50.781Z,3.60
2019-03-03T09:25:24.774Z,3.58
2019-03-03T09:26:56.087Z,2.95
2019-03-03T09:28:32.241Z,2.90
2019-03-03T09:29:59.082Z,2.45
2019-03-03T09:31:21.698Z,3.17
2019-03-03T09:32:44.241Z,2.10
2019-03-03T09:33:59.060Z,2.27
2019-03-03T09:35:18.896Z,2.40
2019-03-03T09:36:46.118Z,3.52
2019-03-03T09:38:09.689Z,3.77
2019-03-03T09:39:36.352Z,3.60
2019-03-03T09:40:58.052Z,2.83
2019-03-03T09:42:23.343Z,2.15
2019-03-03T09:43:56.047Z,2.70
2019-03-03T09:45:19.928Z,2.30
2019-03-03T09:46:59.219Z,3.33
2019-03-03T09:48:28.890Z,4.47
2019-03-03T09:49:56.682Z,28.62
2019-03-03T09:51:19.530Z,2.85
2019-03-03T09:52:42.063Z,8.00
2019-03-03T09:54:04.755Z,3.15
2019-03-03T09:55:28.703Z,4.85
2019-03-03T09:56:47.590Z,5.25
2019-03-03T10:00:00.659Z,3.77
2019-03-03T10:01:12.079Z,3.00
2019-03-03T10:02:43.519Z,3.17
2019-03-03T10:03:59.161Z,4.33
2019-03-03T10:05:32.365Z,4.35
2019-03-03T10:07:08.529Z,6.62
2019-03-03T10:08:34.045Z,1.70
2019-03-03T10:09:51.746Z,3.22
2019-03-03T10:11:24.477Z,4.47
2019-03-03T10:12:49.080Z,10.32
2019-03-03T10:14:17.446Z,2.15
2019-03-03T10:16:13.985Z,2.62
2019-03-03T10:17:49.670Z,5.08
2019-03-03T10:19:11.201Z,4.47
2019-03-03T10:20:29.732Z,3.22
2019-03-03T10:21:54.163Z,10.53
2019-03-03T10:23:43.788Z,8.45
2019-03-03T10:25:15.418Z,8.95
2019-03-03T10:26:50.705Z,7.35
2019-03-03T10:28:21.937Z,4.65
2019-03-03T10:29:53.501Z,9.75
2019-03-03T10:31:50.841Z,26.70
2019-03-03T10:33:26.691Z,4.60
2019-03-03T10:34:52.190Z,5.95
2019-03-03T10:36:19.349Z,4.10
2019-03-03T10:37:39.128Z,3.70
2019-03-03T10:39:05.515Z,4.67
2019-03-03T10:40:29.718Z,8.10
2019-03-03T10:42:00.128Z,13.93
2019-03-03T10:43:27.225Z,6.30
2019-03-03T10:45:03.397Z,5.47
2019-03-03T10:46:27.548Z,2.60
2019-03-03T10:47:49.978Z,17.87
2019-03-03T10:49:14.232Z,12.10
2019-03-03T10:50:36.862Z,20.50
2019-03-03T10:52:00.872Z,17.02
2019-03-03T10:53:28.767Z,6.20
2019-03-03T10:55:08.307Z,14.90
2019-03-03T10:56:20.572Z,3.60
2019-03-03T10:57:47.111Z,5.83
2019-03-03T10:59:18.921Z,5.25
2019-03-03T11:00:38.431Z,12.18
2019-03-03T11:02:14.137Z,6.72
2019-03-03T11:03:38.101Z,6.58
2019-03-03T11:04:52.374Z,6.80
2019-03-03T11:06:18.129Z,4.03
2019-03-03T11:07:42.144Z,5.00
2019-03-03T11:08:56.451Z,3.67
2019-03-03T11:10:20.351Z,2.55
2019-03-03T11:11:47.726Z,10.60
2019-03-03T11:13:07.451Z,6.17
2019-03-03T11:14:41.303Z,9.80
2019-03-03T11:16:14.366Z,15.08
2019-03-03T11:17:47.030Z,5.28
2019-03-03T11:19:15.692Z,3.00
2019-03-03T11:20:48.684Z,30.00
2019-03-03T11:22:41.156Z,22.40
2019-03-03T11:24:06.417Z,10.78
2019-03-03T11:25:28.773Z,3.10
2019-03-03T11:26:56.550Z,4.40
2019-03-03T11:28:12.977Z,6.10
2019-03-03T11:29:33.254Z,2.90
2019-03-03T11:31:15.719Z,3.85
2019-03-03T11:33:12.798Z,2.90
2019-03-03T11:35:08.495Z,3.37
2019-03-03T11:42:31.149Z,7.53
2019-03-03T11:43:58.102Z,18.87
2019-03-03T11:45:44.447Z,17.98
2019-03-03T11:49:15.916Z,9.08
2019-03-03T11:50:32.229Z,14.95
2019-03-03T11:54:17.175Z,10.65
2019-03-03T11:55:39.211Z,14.87
2019-03-03T11:56:56.641Z,22.37
2019-03-03T11:58:19.828Z,16.97
2019-03-03T11:59:56.421Z,54.48
2019-03-03T12:02:11.527Z,20.50
2019-03-03T12:04:11.770Z,31.95
2019-03-03T12:05:49.635Z,5.37
2019-03-03T12:07:11.399Z,6.35
2019-03-03T12:08:36.383Z,4.67
2019-03-03T12:10:06.144Z,5.25
2019-03-03T12:11:28.303Z,6.25
2019-03-03T12:13:01.080Z,3.62
2019-03-03T12:14:30.778Z,4.35
2019-03-03T12:15:55.484Z,6.70
2019-03-03T12:17:08.605Z,5.87
2019-03-03T12:18:33.250Z,4.10
2019-03-03T12:20:38.089Z,5.10
2019-03-03T12:22:13.709Z,4.70
2019-03-03T12:23:36.649Z,7.75
2019-03-03T12:25:01.837Z,4.03
2019-03-03T12:26:26.165Z,25.60
2019-03-03T12:27:56.196Z,7.90
2019-03-03T12:29:22.554Z,5.70
2019-03-03T12:30:55.200Z,10.13
2019-03-03T12:32:39.180Z,6.35
2019-03-03T12:33:58.759Z,4.42
2019-03-03T12:35:37.788Z,3.58
2019-03-03T12:37:24.996Z,5.20
2019-03-03T12:39:14.821Z,3.52
2019-03-03T12:40:49.240Z,6.55
2019-03-03T12:42:42.104Z,10.78
2019-03-03T12:44:11.837Z,2.85
2019-03-03T12:45:35.155Z,3.50
2019-03-03T12:46:58.720Z,4.80
2019-03-03T12:48:12.340Z,5.78
2019-03-03T12:49:43.419Z,6.05
2019-03-03T12:51:00.728Z,5.40
2019-03-03T12:52:22.002Z,5.03
2019-03-03T12:53:43.769Z,7.35
2019-03-03T12:55:02.502Z,4.50
2019-03-03T12:57:19.774Z,4.95
2019-03-03T13:01:54.265Z,14.50
2019-03-03T13:03:19.882Z,10.58
2019-03-03T13:04:35.603Z,9.75
2019-03-03T13:06:00.629Z,2.90
2019-03-03T13:07:43.258Z,3.40
2019-03-03T13:09:19.467Z,3.67
2019-03-03T13:10:42.232Z,3.60
2019-03-03T13:17:08.383Z,2.12
2019-03-03T13:18:33.166Z,2.55
2019-03-03T13:19:52.655Z,2.60
2019-03-03T13:21:13.099Z,3.40
2019-03-03T13:23:21.627Z,2.85
2019-03-03T13:25:08.794Z,3.95
2019-03-03T13:26:47.510Z,3.52
2019-03-03T13:28:21.115Z,3.45
2019-03-03T13:29:48.273Z,1.95
2019-03-03T13:31:01.869Z,2.60
2019-03-03T13:32:18.377Z,3.55
2019-03-03T13:34:04.734Z,2.67
2019-03-03T13:35:25.478Z,2.60
2019-03-03T13:37:24.251Z,2.47
2019-03-03T13:38:53.559Z,2.70
2019-03-03T13:40:54.652Z,2.77
2019-03-03T13:42:16.672Z,3.60
2019-03-03T13:44:42.190Z,2.08
2019-03-03T13:47:34.518Z,2.10
2019-03-03T13:49:39.739Z,2.87
2019-03-03T13:50:47.709Z,2.87
2019-03-03T13:52:40.202Z,3.55
2019-03-03T13:54:01.597Z,4.33
2019-03-03T13:55:12.622Z,5.37
2019-03-03T13:57:15.622Z,3.60
2019-03-03T13:59:08.088Z,2.60
2019-03-03T14:01:08.423Z,2.27
2019-03-03T14:03:07.741Z,2.40
2019-03-03T14:04:21.165Z,2.35
2019-03-03T14:05:30.655Z,2.17
2019-03-03T14:07:16.508Z,2.37
2019-03-03T14:10:10.293Z,2.65
2019-03-03T14:12:03.214Z,3.60
2019-03-03T14:13:11.767Z,1.90
2019-03-03T14:14:38.720Z,2.33
2019-03-03T14:16:41.346Z,2.40
2019-03-03T14:19:47.991Z,2.30
2019-03-03T14:20:56.632Z,2.83
2019-03-03T14:22:52.656Z,2.22
2019-03-03T14:24:05.413Z,2.45
2019-03-03T14:25:11.590Z,2.27
2019-03-03T14:26:24.762Z,2.45
2019-03-03T14:27:30.529Z,1.95
2019-03-03T14:28:37.312Z,2.40
2019-03-03T14:29:43.458Z,2.95
2019-03-03T14:30:48.557Z,2.42
2019-03-03T14:32:38.159Z,3.15
2019-03-03T14:33:51.219Z,2.80
2019-03-03T14:34:58.772Z,3.05
2019-03-03T14:36:29.792Z,3.00
2019-03-03T14:37:40.447Z,2.80
2019-03-03T14:39:05.729Z,3.40
2019-03-03T14:40:15.831Z,2.58
2019-03-03T14:41:20.713Z,4.15
2019-03-03T14:42:34.745Z,4.58
2019-03-03T14:44:42.135Z,8.03
2019-03-03T14:46:30.510Z,5.40
2019-03-03T14:48:03.413Z,3.15
2019-03-03T14:49:59.866Z,3.35
2019-03-03T14:53:42.028Z,2.37
2019-03-03T14:55:34.378Z,3.27
2019-03-03T14:56:51.700Z,4.65
2019-03-03T14:57:57.180Z,2.42
2019-03-03T14:59:48.202Z,2.60
2019-03-03T15:00:57.467Z,2.75
2019-03-03T15:02:31.728Z,3.42
2019-03-03T15:03:46.045Z,2.58
2019-03-03T15:04:56.693Z,2.35
2019-03-03T15:06:24.153Z,3.10
2019-03-03T15:07:28.608Z,2.92
2019-03-03T15:08:34.005Z,3.25
2019-03-03T15:09:39.015Z,4.40
2019-03-03T15:10:46.505Z,3.00
2019-03-03T15:12:11.635Z,2.65
2019-03-03T15:13:33.211Z,3.30
2019-03-03T15:14:46.069Z,2.47
2019-03-03T15:16:08.461Z,2.47
2019-03-03T15:17:39.761Z,3.72
2019-03-03T15:18:53.550Z,5.12
2019-03-03T15:20:16.494Z,7.05
2019-03-03T15:22:22.168Z,4.10
2019-03-03T15:23:54.534Z,6.17
2019-03-03T15:25:09.220Z,8.98
2019-03-03T15:26:23.671Z,7.20
2019-03-03T15:27:31.276Z,5.03
2019-03-03T15:29:19.969Z,3.77
2019-03-03T15:30:38.444Z,3.60
2019-03-03T15:32:00.621Z,3.50
2019-03-03T15:33:31.669Z,3.10
2019-03-03T15:34:43.714Z,5.10
2019-03-03T15:36:31.630Z,9.45
2019-03-03T15:37:46.091Z,19.02
2019-03-03T15:39:17.659Z,10.23
2019-03-03T15:40:23.698Z,17.20
2019-03-03T15:41:31.063Z,17.27
2019-03-03T15:42:54.540Z,19.90
2019-03-03T15:44:27.404Z,7.97
2019-03-03T15:45:38.710Z,4.97
2019-03-03T15:51:45.582Z,3.50
2019-03-03T15:54:01.474Z,12.43
2019-03-03T15:55:08.287Z,12.05
2019-03-03T15:57:00.260Z,12.10
2019-03-03T15:58:15.965Z,5.12
2019-03-03T16:01:43.750Z,9.50
2019-03-03T16:02:51.191Z,6.45
2019-03-03T16:03:56.743Z,7.28
2019-03-03T16:05:03.297Z,8.65
2019-03-03T16:06:09.363Z,8.30
2019-03-03T16:07:26.545Z,5.75
2019-03-03T16:08:48.739Z,5.03
2019-03-03T16:10:18.452Z,4.05
2019-03-03T16:11:55.958Z,3.87
2019-03-03T16:12:58.052Z,3.40
2019-03-03T16:14:21.507Z,3.70
2019-03-03T16:17:50.205Z,2.95
2019-03-03T16:19:02.344Z,4.35
2019-03-03T16:20:17.120Z,12.53
2019-03-03T16:21:27.644Z,10.35
2019-03-03T16:22:43.458Z,7.47
2019-03-03T16:24:01.395Z,13.20
2019-03-03T16:28:10.201Z,12.78
2019-03-03T16:30:21.535Z,10.43
2019-03-03T16:32:53.597Z,4.80
2019-03-03T16:34:35.397Z,9.80
2019-03-03T16:35:56.428Z,10.13
2019-03-03T16:37:22.905Z,12.15
2019-03-03T16:38:35.159Z,12.40
2019-03-03T16:39:52.007Z,14.80
2019-03-03T16:41:41.880Z,18.52
2019-03-03T16:42:47.329Z,11.30
2019-03-03T16:44:02.806Z,8.18
2019-03-03T16:45:33.161Z,5.05
2019-03-03T16:47:06.961Z,6.50
2019-03-03T16:48:33.246Z,6.28
2019-03-03T17:01:01.435Z,7.25
2019-03-03T17:01:55.610Z,5.65
2019-03-03T17:03:09.248Z,6.62
2019-03-03T17:04:20.416Z,5.00
2019-03-03T17:05:28.737Z,5.17
2019-03-03T17:06:36.629Z,4.62
2019-03-03T17:07:43.993Z,4.70
2019-03-03T17:08:53.718Z,5.03
2019-03-03T17:10:11.916Z,5.03
2019-03-03T17:11:23.113Z,5.42
2019-03-03T17:12:28.585Z,4.60
2019-03-03T17:13:36.697Z,4.00
2019-03-03T17:14:53.190Z,3.85
2019-03-03T17:16:01.311Z,4.37
2019-03-03T17:17:09.697Z,4.55
2019-03-03T17:18:23.213Z,5.87
2019-03-03T17:19:35.956Z,6.95
2019-03-03T17:20:42.382Z,9.98
2019-03-03T17:21:49.207Z,14.20
2019-03-03T17:22:55.771Z,15.90
2019-03-03T17:24:08.221Z,20.00
2019-03-03T17:25:18.991Z,14.95
2019-03-03T17:26:24.596Z,7.03
2019-03-03T17:27:31.213Z,4.85
2019-03-03T17:28:43.356Z,4.30
2019-03-03T17:29:50.225Z,5.15
2019-03-03T17:30:58.491Z,5.80
2019-03-03T17:32:09.385Z,5.65
2019-03-03T17:33:15.746Z,6.53
2019-03-03T17:34:22.441Z,5.20
2019-03-03T17:35:37.132Z,6.53
2019-03-03T17:36:47.364Z,7.83
2019-03-03T17:38:02.448Z,6.78
2019-03-03T17:39:16.437Z,7.00
2019-03-03T17:40:25.938Z,8.85
2019-03-03T17:41:53.135Z,6.55
2019-03-03T17:43:05.057Z,8.20
2019-03-03T17:44:19.576Z,8.98
2019-03-03T17:45:41.305Z,8.45
2019-03-03T17:46:53.147Z,8.40
2019-03-03T17:48:00.703Z,14.85
2019-03-03T17:49:11.596Z,21.23
2019-03-03T17:50:19.349Z,47.35
2019-03-03T17:51:44.163Z,12.18
2019-03-03T17:53:35.239Z,18.02
2019-03-03T17:55:28.089Z,26.07
2019-03-03T17:57:00.367Z,29.12
2019-03-03T17:58:14.511Z,38.05
2019-03-03T17:59:44.089Z,19.80
2019-03-03T18:00:54.330Z,15.70
2019-03-03T18:02:05.612Z,10.30
2019-03-03T18:03:17.077Z,10.65
2019-03-03T18:04:23.685Z,15.35
2019-03-03T18:05:41.734Z,14.38
2019-03-03T18:07:07.190Z,8.20
2019-03-03T18:08:17.318Z,11.43
2019-03-03T18:09:29.559Z,9.20
2019-03-03T18:11:00.325Z,20.70
2019-03-03T18:13:32.187Z,19.10
2019-03-03T18:17:14.696Z,33.50
2019-03-03T18:19:06.572Z,46.48